Ust'- Barguzin, Russia
Current Conditions -  °F | °C
As of 4:00 AM on Thursday 29 Jan 2015 (Local Time) from UIUU Reporting Station
Haze Haze  
Wind Chill: -39°   Ceiling: Unl
Heat Index: -22°   Visibility: 3mi
Dew Point: -29°   Wind: 7mph
Humidity: 69%   Direction: 60°ENE
Pressure: 30.45"   Gusts: NA
Location:  53.45°N, 108.98°E
Report Text: UIUU 282000Z 06003MPS 5000 BR FEW100 M30/M34 Q1031 NOSIG RMKQFE728/0971 26822050
Loading
Personal Weather Stations






























Interactive Weather Map New forecast layout! Learn more

10-Day Weather Forecast

Advertisements
Track Severe Weather on mobile